createdAt,value
2023-05-19T00:04:17.721Z,6.70
2023-05-19T00:14:20.218Z,6.70
2023-05-19T00:24:22.359Z,6.66
2023-05-19T00:34:24.504Z,6.47
2023-05-19T00:44:26.637Z,6.42
2023-05-19T00:54:29.073Z,6.21
2023-05-19T01:14:37.058Z,6.30
2023-05-19T01:24:56.316Z,5.96
2023-05-19T01:34:58.852Z,5.80
2023-05-19T01:45:01.235Z,5.43
2023-05-19T01:55:03.456Z,5.42
2023-05-19T02:05:29.315Z,5.72
2023-05-19T02:15:44.352Z,6.05
2023-05-19T02:25:46.471Z,5.50
2023-05-19T02:35:48.556Z,5.46
2023-05-19T02:45:50.683Z,5.08
2023-05-19T02:55:52.834Z,5.05
2023-05-19T03:05:55.077Z,5.26
2023-05-19T03:15:59.080Z,4.71
2023-05-19T03:26:01.263Z,4.52
2023-05-19T03:36:04.110Z,4.41
2023-05-19T03:46:10.579Z,4.52
2023-05-19T03:56:33.256Z,4.71
2023-05-19T04:06:36.221Z,4.44
2023-05-19T04:16:38.522Z,4.61
2023-05-19T04:26:45.728Z,4.83
2023-05-19T04:36:48.592Z,4.85
2023-05-19T04:46:54.369Z,5.09
2023-05-19T04:56:58.220Z,5.18
2023-05-19T05:07:03.651Z,5.36
2023-05-19T05:17:06.336Z,5.60
2023-05-19T05:27:10.069Z,5.52
2023-05-19T05:37:14.570Z,5.58
2023-05-19T05:47:17.875Z,6.28
2023-05-19T05:57:21.663Z,6.40
2023-05-19T06:07:25.418Z,6.47
2023-05-19T06:17:27.757Z,7.01
2023-05-19T06:27:30.102Z,6.91
2023-05-19T06:37:32.869Z,7.29
2023-05-19T06:47:35.505Z,7.53
2023-05-19T06:57:38.021Z,7.76
2023-05-19T07:07:41.779Z,7.70
2023-05-19T07:17:48.678Z,8.90
2023-05-19T07:27:51.052Z,8.83
2023-05-19T07:37:53.160Z,9.22
2023-05-19T07:47:55.401Z,9.66
2023-05-19T07:57:59.286Z,10.08
2023-05-19T08:08:01.833Z,10.45
2023-05-19T08:18:05.303Z,10.70
2023-05-19T08:28:07.539Z,11.59
2023-05-19T08:38:09.640Z,11.35
2023-05-19T08:48:13.129Z,11.99
2023-05-19T08:58:16.518Z,12.62
2023-05-19T09:08:18.940Z,12.27
2023-05-19T09:18:21.074Z,12.23
2023-05-19T09:28:34.165Z,12.41
2023-05-19T09:38:37.601Z,12.99
2023-05-19T09:48:39.856Z,12.80
2023-05-19T09:58:42.509Z,13.23
2023-05-19T10:08:45.124Z,13.91
2023-05-19T10:18:47.435Z,13.28
2023-05-19T10:28:50.613Z,13.91
2023-05-19T10:38:55.870Z,13.63
2023-05-19T10:48:58.081Z,14.26
2023-05-19T10:59:01.230Z,14.80
2023-05-19T11:09:20.906Z,14.19
2023-05-19T11:19:31.305Z,15.24
2023-05-19T11:29:34.821Z,15.07
2023-05-19T11:39:37.119Z,15.80
2023-05-19T11:49:39.455Z,16.22
2023-05-19T11:59:45.573Z,16.21
2023-05-19T12:09:48.525Z,15.82
2023-05-19T12:19:51.166Z,16.17
2023-05-19T12:29:55.112Z,16.50
2023-05-19T12:39:58.168Z,16.35
2023-05-19T12:50:00.363Z,17.18
2023-05-19T13:00:13.985Z,16.57
2023-05-19T13:10:17.008Z,16.16
2023-05-19T13:20:22.630Z,17.27
2023-05-19T13:30:25.754Z,16.57
2023-05-19T13:40:28.608Z,17.68
2023-05-19T13:50:30.755Z,16.43
2023-05-19T14:00:33.252Z,17.24
2023-05-19T14:10:36.005Z,16.76
2023-05-19T14:20:38.313Z,17.21
2023-05-19T14:30:41.432Z,16.87
2023-05-19T14:40:44.311Z,17.18
2023-05-19T14:50:48.199Z,16.88
2023-05-19T15:00:50.456Z,16.90
2023-05-19T15:10:52.686Z,17.22
2023-05-19T15:20:54.940Z,16.10
2023-05-19T15:30:57.111Z,15.52
2023-05-19T15:40:59.301Z,16.42
2023-05-19T15:51:01.847Z,15.99
2023-05-19T16:01:04.072Z,15.93
2023-05-19T16:11:06.359Z,16.15
2023-05-19T16:21:08.844Z,15.37
2023-05-19T16:31:11.166Z,15.83
2023-05-19T16:41:13.356Z,15.47
2023-05-19T16:51:15.584Z,15.40
2023-05-19T17:01:17.767Z,15.31
2023-05-19T17:11:19.878Z,15.58
2023-05-19T17:21:22.005Z,15.31
2023-05-19T17:31:24.197Z,15.47
2023-05-19T17:41:26.466Z,15.44
2023-05-19T17:51:28.873Z,14.51
2023-05-19T18:01:32.261Z,14.59
2023-05-19T18:11:35.878Z,14.30
2023-05-19T18:21:38.054Z,14.76
2023-05-19T18:31:41.135Z,13.95
2023-05-19T18:41:43.603Z,13.99
2023-05-19T18:51:48.330Z,13.40
2023-05-19T19:01:50.656Z,13.82
2023-05-19T19:11:52.789Z,13.16
2023-05-19T19:21:54.865Z,13.26
2023-05-19T19:31:57.184Z,12.89
2023-05-19T19:41:59.328Z,12.74
2023-05-19T19:52:01.572Z,12.26
2023-05-19T20:02:03.873Z,12.32
2023-05-19T20:12:06.424Z,12.29
2023-05-19T20:22:08.774Z,12.23
2023-05-19T20:32:11.223Z,12.50
2023-05-19T20:42:13.667Z,11.96
2023-05-19T20:52:16.445Z,11.79
2023-05-19T21:02:18.610Z,11.46
2023-05-19T21:12:25.031Z,11.47
2023-05-19T21:22:27.580Z,11.78
2023-05-19T21:32:30.218Z,11.84
2023-05-19T21:42:32.404Z,11.99
2023-05-19T21:52:36.269Z,12.03
2023-05-19T22:02:40.222Z,11.77
2023-05-19T22:12:42.476Z,11.43
2023-05-19T22:22:44.597Z,10.91
2023-05-19T22:32:46.694Z,10.83
2023-05-19T22:42:48.811Z,10.97
2023-05-19T22:52:50.978Z,10.39
2023-05-19T23:02:53.245Z,10.45
2023-05-19T23:12:55.515Z,10.24
2023-05-19T23:22:57.699Z,9.92
2023-05-19T23:32:59.912Z,9.88
2023-05-19T23:43:03.111Z,9.63
2023-05-19T23:53:05.195Z,9.58
